sensor_id;sensor_type;location;lat;lon;timestamp;P1;durP1;ratioP1;P2;durP2;ratioP2
8861;SDS011;4799;50.996;4.754;2023-03-01T00:01:47;13.33;;;12.13;;
8861;SDS011;4799;50.996;4.754;2023-03-01T00:04:13;14.20;;;12.70;;
8861;SDS011;4799;50.996;4.754;2023-03-01T00:06:39;13.47;;;12.27;;
8861;SDS011;4799;50.996;4.754;2023-03-01T00:09:07;14.27;;;12.87;;
8861;SDS011;4799;50.996;4.754;2023-03-01T00:11:33;14.30;;;13.00;;
8861;SDS011;4799;50.996;4.754;2023-03-01T00:14:00;13.43;;;12.23;;
8861;SDS011;4799;50.996;4.754;2023-03-01T00:16:31;13.57;;;12.27;;
8861;SDS011;4799;50.996;4.754;2023-03-01T00:18:59;14.20;;;12.80;;
8861;SDS011;4799;50.996;4.754;2023-03-01T00:21:25;12.80;;;11.60;;
8861;SDS011;4799;50.996;4.754;2023-03-01T00:23:51;14.10;;;12.70;;
8861;SDS011;4799;50.996;4.754;2023-03-01T00:26:19;13.27;;;12.07;;
8861;SDS011;4799;50.996;4.754;2023-03-01T00:28:46;12.93;;;11.83;;
8861;SDS011;4799;50.996;4.754;2023-03-01T00:31:16;14.67;;;13.27;;
8861;SDS011;4799;50.996;4.754;2023-03-01T00:33:44;15.63;;;14.13;;
8861;SDS011;4799;50.996;4.754;2023-03-01T00:36:11;14.03;;;12.70;;
8861;SDS011;4799;50.996;4.754;2023-03-01T00:38:39;13.77;;;12.33;;
8861;SDS011;4799;50.996;4.754;2023-03-01T00:41:08;14.07;;;12.77;;
8861;SDS011;4799;50.996;4.754;2023-03-01T00:43:35;15.60;;;14.07;;
8861;SDS011;4799;50.996;4.754;2023-03-01T00:46:02;15.23;;;13.73;;
8861;SDS011;4799;50.996;4.754;2023-03-01T00:48:35;14.70;;;13.20;;
8861;SDS011;4799;50.996;4.754;2023-03-01T00:51:06;15.30;;;13.80;;
8861;SDS011;4799;50.996;4.754;2023-03-01T00:53:33;14.50;;;13.13;;
8861;SDS011;4799;50.996;4.754;2023-03-01T00:55:59;14.23;;;12.93;;
8861;SDS011;4799;50.996;4.754;2023-03-01T00:58:25;14.47;;;13.07;;
8861;SDS011;4799;50.996;4.754;2023-03-01T01:00:51;14.43;;;13.03;;
8861;SDS011;4799;50.996;4.754;2023-03-01T01:03:20;13.77;;;12.47;;
8861;SDS011;4799;50.996;4.754;2023-03-01T01:05:46;13.13;;;11.97;;
8861;SDS011;4799;50.996;4.754;2023-03-01T01:08:12;14.50;;;13.20;;
8861;SDS011;4799;50.996;4.754;2023-03-01T01:10:37;13.20;;;11.97;;
8861;SDS011;4799;50.996;4.754;2023-03-01T01:13:03;13.63;;;12.43;;
8861;SDS011;4799;50.996;4.754;2023-03-01T01:15:32;13.73;;;12.43;;
8861;SDS011;4799;50.996;4.754;2023-03-01T01:17:59;14.23;;;12.80;;
8861;SDS011;4799;50.996;4.754;2023-03-01T01:20:25;14.20;;;12.80;;
8861;SDS011;4799;50.996;4.754;2023-03-01T01:22:51;13.83;;;12.53;;
8861;SDS011;4799;50.996;4.754;2023-03-01T01:25:17;12.90;;;11.73;;
8861;SDS011;4799;50.996;4.754;2023-03-01T01:27:43;13.17;;;11.87;;
8861;SDS011;4799;50.996;4.754;2023-03-01T01:30:09;13.07;;;11.83;;
8861;SDS011;4799;50.996;4.754;2023-03-01T01:32:36;13.13;;;11.93;;
8861;SDS011;4799;50.996;4.754;2023-03-01T01:35:01;13.53;;;12.20;;
8861;SDS011;4799;50.996;4.754;2023-03-01T01:37:27;13.63;;;12.43;;
8861;SDS011;4799;50.996;4.754;2023-03-01T01:39:59;12.67;;;11.47;;
8861;SDS011;4799;50.996;4.754;2023-03-01T01:42:26;13.17;;;11.83;;
8861;SDS011;4799;50.996;4.754;2023-03-01T01:47:56;12.93;;;11.67;;
8861;SDS011;4799;50.996;4.754;2023-03-01T01:50:25;12.60;;;11.40;;
8861;SDS011;4799;50.996;4.754;2023-03-01T01:52:52;12.53;;;11.43;;
8861;SDS011;4799;50.996;4.754;2023-03-01T01:55:21;12.40;;;11.30;;
8861;SDS011;4799;50.996;4.754;2023-03-01T01:57:53;13.47;;;12.27;;
8861;SDS011;4799;50.996;4.754;2023-03-01T02:00:23;12.67;;;11.47;;
8861;SDS011;4799;50.996;4.754;2023-03-01T02:02:55;12.67;;;11.57;;
8861;SDS011;4799;50.996;4.754;2023-03-01T02:05:29;13.40;;;12.10;;
8861;SDS011;4799;50.996;4.754;2023-03-01T02:08:20;13.93;;;12.53;;
8861;SDS011;4799;50.996;4.754;2023-03-01T02:10:48;12.30;;;11.20;;
8861;SDS011;4799;50.996;4.754;2023-03-01T02:13:15;13.63;;;12.33;;
8861;SDS011;4799;50.996;4.754;2023-03-01T02:15:41;14.13;;;12.73;;
8861;SDS011;4799;50.996;4.754;2023-03-01T02:18:09;14.40;;;13.10;;
8861;SDS011;4799;50.996;4.754;2023-03-01T02:20:50;14.17;;;12.77;;
8861;SDS011;4799;50.996;4.754;2023-03-01T02:23:27;13.60;;;12.33;;
8861;SDS011;4799;50.996;4.754;2023-03-01T02:28:36;14.17;;;12.80;;
8861;SDS011;4799;50.996;4.754;2023-03-01T02:31:07;15.07;;;13.63;;
8861;SDS011;4799;50.996;4.754;2023-03-01T02:33:53;14.87;;;13.37;;
8861;SDS011;4799;50.996;4.754;2023-03-01T02:36:21;15.73;;;14.17;;
8861;SDS011;4799;50.996;4.754;2023-03-01T02:38:53;15.00;;;13.60;;
8861;SDS011;4799;50.996;4.754;2023-03-01T02:41:22;15.50;;;14.00;;
8861;SDS011;4799;50.996;4.754;2023-03-01T02:43:51;15.57;;;14.07;;
8861;SDS011;4799;50.996;4.754;2023-03-01T02:46:19;14.90;;;13.37;;
8861;SDS011;4799;50.996;4.754;2023-03-01T02:48:57;14.60;;;13.20;;
8861;SDS011;4799;50.996;4.754;2023-03-01T02:56:47;15.03;;;13.60;;
8861;SDS011;4799;50.996;4.754;2023-03-01T02:59:15;15.93;;;14.30;;
8861;SDS011;4799;50.996;4.754;2023-03-01T03:01:43;15.33;;;13.83;;
8861;SDS011;4799;50.996;4.754;2023-03-01T03:04:10;15.50;;;13.90;;
8861;SDS011;4799;50.996;4.754;2023-03-01T03:06:42;13.97;;;12.57;;
8861;SDS011;4799;50.996;4.754;2023-03-01T03:09:08;15.97;;;14.43;;
8861;SDS011;4799;50.996;4.754;2023-03-01T03:11:34;15.00;;;13.60;;
8861;SDS011;4799;50.996;4.754;2023-03-01T03:14:02;15.10;;;13.50;;
8861;SDS011;4799;50.996;4.754;2023-03-01T03:16:28;15.03;;;13.63;;
8861;SDS011;4799;50.996;4.754;2023-03-01T03:18:54;16.17;;;14.50;;
8861;SDS011;4799;50.996;4.754;2023-03-01T03:21:30;15.80;;;14.13;;
8861;SDS011;4799;50.996;4.754;2023-03-01T03:23:59;14.07;;;12.77;;
8861;SDS011;4799;50.996;4.754;2023-03-01T03:26:25;14.23;;;12.93;;
8861;SDS011;4799;50.996;4.754;2023-03-01T03:28:50;15.70;;;14.20;;
8861;SDS011;4799;50.996;4.754;2023-03-01T03:31:16;15.37;;;13.93;;
8861;SDS011;4799;50.996;4.754;2023-03-01T03:33:42;14.97;;;13.60;;
8861;SDS011;4799;50.996;4.754;2023-03-01T03:36:08;15.17;;;13.67;;
8861;SDS011;4799;50.996;4.754;2023-03-01T03:38:43;15.17;;;13.77;;
8861;SDS011;4799;50.996;4.754;2023-03-01T03:41:10;15.17;;;13.77;;
8861;SDS011;4799;50.996;4.754;2023-03-01T03:43:38;15.63;;;13.63;;
8861;SDS011;4799;50.996;4.754;2023-03-01T03:46:05;15.33;;;13.93;;
8861;SDS011;4799;50.996;4.754;2023-03-01T03:48:36;15.33;;;13.80;;
8861;SDS011;4799;50.996;4.754;2023-03-01T03:51:06;15.37;;;13.87;;
8861;SDS011;4799;50.996;4.754;2023-03-01T03:53:35;15.70;;;14.20;;
8861;SDS011;4799;50.996;4.754;2023-03-01T03:56:01;15.27;;;13.87;;
8861;SDS011;4799;50.996;4.754;2023-03-01T03:58:26;15.23;;;13.83;;
8861;SDS011;4799;50.996;4.754;2023-03-01T04:00:53;15.03;;;13.57;;
8861;SDS011;4799;50.996;4.754;2023-03-01T04:03:21;14.20;;;12.90;;
8861;SDS011;4799;50.996;4.754;2023-03-01T04:05:48;15.07;;;13.57;;
8861;SDS011;4799;50.996;4.754;2023-03-01T04:08:18;14.63;;;13.23;;
8861;SDS011;4799;50.996;4.754;2023-03-01T04:10:46;14.20;;;12.87;;
8861;SDS011;4799;50.996;4.754;2023-03-01T04:13:16;15.10;;;13.57;;
8861;SDS011;4799;50.996;4.754;2023-03-01T04:15:44;15.07;;;13.60;;
8861;SDS011;4799;50.996;4.754;2023-03-01T04:18:15;14.90;;;13.37;;
8861;SDS011;4799;50.996;4.754;2023-03-01T04:20:43;14.93;;;13.33;;
8861;SDS011;4799;50.996;4.754;2023-03-01T04:23:11;14.97;;;13.50;;
8861;SDS011;4799;50.996;4.754;2023-03-01T04:28:19;15.40;;;13.83;;
8861;SDS011;4799;50.996;4.754;2023-03-01T04:31:09;15.23;;;13.63;;
8861;SDS011;4799;50.996;4.754;2023-03-01T04:33:42;14.93;;;13.53;;
8861;SDS011;4799;50.996;4.754;2023-03-01T04:36:10;15.13;;;13.63;;
8861;SDS011;4799;50.996;4.754;2023-03-01T04:38:37;14.73;;;13.30;;
8861;SDS011;4799;50.996;4.754;2023-03-01T04:41:04;14.60;;;13.20;;
8861;SDS011;4799;50.996;4.754;2023-03-01T04:43:31;14.53;;;13.03;;
8861;SDS011;4799;50.996;4.754;2023-03-01T04:46:18;16.00;;;13.03;;
8861;SDS011;4799;50.996;4.754;2023-03-01T04:48:45;14.03;;;12.73;;
8861;SDS011;4799;50.996;4.754;2023-03-01T04:51:12;14.10;;;12.70;;
8861;SDS011;4799;50.996;4.754;2023-03-01T04:53:38;14.63;;;13.13;;
8861;SDS011;4799;50.996;4.754;2023-03-01T04:56:05;15.50;;;13.93;;
8861;SDS011;4799;50.996;4.754;2023-03-01T04:58:31;14.67;;;13.37;;
8861;SDS011;4799;50.996;4.754;2023-03-01T05:00:57;14.90;;;13.50;;
8861;SDS011;4799;50.996;4.754;2023-03-01T05:03:23;15.17;;;13.70;;
8861;SDS011;4799;50.996;4.754;2023-03-01T05:05:49;15.23;;;13.80;;
8861;SDS011;4799;50.996;4.754;2023-03-01T05:08:16;15.80;;;14.23;;
8861;SDS011;4799;50.996;4.754;2023-03-01T05:10:46;14.87;;;13.57;;
8861;SDS011;4799;50.996;4.754;2023-03-01T05:13:16;15.47;;;13.87;;
8861;SDS011;4799;50.996;4.754;2023-03-01T05:15:57;16.60;;;13.83;;
8861;SDS011;4799;50.996;4.754;2023-03-01T05:18:24;16.63;;;15.03;;
8861;SDS011;4799;50.996;4.754;2023-03-01T05:20:54;15.20;;;13.70;;
8861;SDS011;4799;50.996;4.754;2023-03-01T05:23:23;16.00;;;14.33;;
8861;SDS011;4799;50.996;4.754;2023-03-01T05:25:49;15.53;;;13.93;;
8861;SDS011;4799;50.996;4.754;2023-03-01T05:28:18;15.80;;;14.13;;
8861;SDS011;4799;50.996;4.754;2023-03-01T05:30:44;15.67;;;14.03;;
8861;SDS011;4799;50.996;4.754;2023-03-01T05:33:11;15.57;;;14.07;;
8861;SDS011;4799;50.996;4.754;2023-03-01T05:35:40;15.53;;;14.10;;
8861;SDS011;4799;50.996;4.754;2023-03-01T05:38:07;16.03;;;14.50;;
8861;SDS011;4799;50.996;4.754;2023-03-01T05:40:34;15.60;;;14.00;;
8861;SDS011;4799;50.996;4.754;2023-03-01T05:43:00;16.20;;;14.63;;
8861;SDS011;4799;50.996;4.754;2023-03-01T05:45:27;15.70;;;13.90;;
8861;SDS011;4799;50.996;4.754;2023-03-01T05:47:53;16.63;;;14.93;;
8861;SDS011;4799;50.996;4.754;2023-03-01T05:50:21;16.03;;;14.47;;
8861;SDS011;4799;50.996;4.754;2023-03-01T05:52:54;16.30;;;14.67;;
8861;SDS011;4799;50.996;4.754;2023-03-01T05:55:30;15.43;;;13.90;;
8861;SDS011;4799;50.996;4.754;2023-03-01T05:58:03;16.27;;;14.67;;
8861;SDS011;4799;50.996;4.754;2023-03-01T06:00:31;16.33;;;14.63;;
8861;SDS011;4799;50.996;4.754;2023-03-01T06:02:58;15.67;;;14.17;;
8861;SDS011;4799;50.996;4.754;2023-03-01T06:05:24;15.67;;;13.97;;
8861;SDS011;4799;50.996;4.754;2023-03-01T06:07:50;16.17;;;14.67;;
8861;SDS011;4799;50.996;4.754;2023-03-01T06:10:17;16.77;;;15.17;;
8861;SDS011;4799;50.996;4.754;2023-03-01T06:12:44;17.57;;;15.13;;
8861;SDS011;4799;50.996;4.754;2023-03-01T06:15:15;15.73;;;14.23;;
8861;SDS011;4799;50.996;4.754;2023-03-01T06:17:42;16.53;;;14.93;;
8861;SDS011;4799;50.996;4.754;2023-03-01T06:20:19;16.40;;;14.70;;
8861;SDS011;4799;50.996;4.754;2023-03-01T06:22:46;16.03;;;14.53;;
8861;SDS011;4799;50.996;4.754;2023-03-01T06:25:13;16.97;;;15.37;;
8861;SDS011;4799;50.996;4.754;2023-03-01T06:27:41;17.77;;;15.07;;
8861;SDS011;4799;50.996;4.754;2023-03-01T06:30:08;16.93;;;15.23;;
8861;SDS011;4799;50.996;4.754;2023-03-01T06:32:35;16.50;;;14.90;;
8861;SDS011;4799;50.996;4.754;2023-03-01T06:35:03;15.77;;;14.27;;
8861;SDS011;4799;50.996;4.754;2023-03-01T06:37:29;16.37;;;14.77;;
8861;SDS011;4799;50.996;4.754;2023-03-01T06:39:55;15.90;;;14.30;;
8861;SDS011;4799;50.996;4.754;2023-03-01T06:42:21;16.10;;;14.60;;
8861;SDS011;4799;50.996;4.754;2023-03-01T06:44:46;15.80;;;14.37;;
8861;SDS011;4799;50.996;4.754;2023-03-01T06:47:12;15.87;;;14.27;;
8861;SDS011;4799;50.996;4.754;2023-03-01T06:49:38;16.20;;;14.47;;
8861;SDS011;4799;50.996;4.754;2023-03-01T06:52:04;17.37;;;15.57;;
8861;SDS011;4799;50.996;4.754;2023-03-01T06:54:29;17.47;;;15.30;;
8861;SDS011;4799;50.996;4.754;2023-03-01T06:56:55;16.43;;;14.73;;
8861;SDS011;4799;50.996;4.754;2023-03-01T06:59:21;17.50;;;15.77;;
8861;SDS011;4799;50.996;4.754;2023-03-01T07:01:47;17.17;;;15.47;;
8861;SDS011;4799;50.996;4.754;2023-03-01T07:04:12;17.53;;;15.83;;
8861;SDS011;4799;50.996;4.754;2023-03-01T07:06:38;16.60;;;15.00;;
8861;SDS011;4799;50.996;4.754;2023-03-01T07:09:04;16.93;;;15.33;;
8861;SDS011;4799;50.996;4.754;2023-03-01T07:11:30;17.53;;;15.60;;
8861;SDS011;4799;50.996;4.754;2023-03-01T07:13:58;16.90;;;15.20;;
8861;SDS011;4799;50.996;4.754;2023-03-01T07:16:25;17.77;;;15.97;;
8861;SDS011;4799;50.996;4.754;2023-03-01T07:18:50;17.20;;;15.40;;
8861;SDS011;4799;50.996;4.754;2023-03-01T07:21:16;16.93;;;15.30;;
8861;SDS011;4799;50.996;4.754;2023-03-01T07:23:42;16.73;;;15.03;;
8861;SDS011;4799;50.996;4.754;2023-03-01T07:26:08;15.80;;;14.30;;
8861;SDS011;4799;50.996;4.754;2023-03-01T07:28:33;16.70;;;15.00;;
8861;SDS011;4799;50.996;4.754;2023-03-01T07:31:04;16.40;;;14.80;;
8861;SDS011;4799;50.996;4.754;2023-03-01T07:33:31;16.23;;;14.60;;
8861;SDS011;4799;50.996;4.754;2023-03-01T07:35:58;16.10;;;14.60;;
8861;SDS011;4799;50.996;4.754;2023-03-01T07:38:25;16.43;;;14.83;;
8861;SDS011;4799;50.996;4.754;2023-03-01T07:40:51;16.27;;;14.43;;
8861;SDS011;4799;50.996;4.754;2023-03-01T07:43:17;16.37;;;14.83;;
8861;SDS011;4799;50.996;4.754;2023-03-01T07:45:43;15.93;;;14.33;;
8861;SDS011;4799;50.996;4.754;2023-03-01T07:48:09;16.10;;;14.50;;
8861;SDS011;4799;50.996;4.754;2023-03-01T07:50:34;16.07;;;14.47;;
8861;SDS011;4799;50.996;4.754;2023-03-01T07:53:00;15.83;;;14.23;;
8861;SDS011;4799;50.996;4.754;2023-03-01T07:55:26;15.23;;;13.73;;
8861;SDS011;4799;50.996;4.754;2023-03-01T07:57:51;15.13;;;13.57;;
8861;SDS011;4799;50.996;4.754;2023-03-01T08:00:17;14.87;;;13.33;;
8861;SDS011;4799;50.996;4.754;2023-03-01T08:02:43;15.10;;;13.70;;
8861;SDS011;4799;50.996;4.754;2023-03-01T08:05:10;15.73;;;14.13;;
8861;SDS011;4799;50.996;4.754;2023-03-01T08:07:36;15.30;;;13.70;;
8861;SDS011;4799;50.996;4.754;2023-03-01T08:10:02;15.73;;;14.13;;
8861;SDS011;4799;50.996;4.754;2023-03-01T08:12:28;15.73;;;14.13;;
8861;SDS011;4799;50.996;4.754;2023-03-01T08:14:54;15.07;;;13.53;;
8861;SDS011;4799;50.996;4.754;2023-03-01T08:17:21;15.10;;;13.70;;
8861;SDS011;4799;50.996;4.754;2023-03-01T08:19:47;15.73;;;14.20;;
8861;SDS011;4799;50.996;4.754;2023-03-01T08:22:13;15.67;;;14.13;;
8861;SDS011;4799;50.996;4.754;2023-03-01T08:24:40;15.03;;;13.60;;
8861;SDS011;4799;50.996;4.754;2023-03-01T08:27:05;14.93;;;13.50;;
8861;SDS011;4799;50.996;4.754;2023-03-01T08:29:31;15.30;;;13.90;;
8861;SDS011;4799;50.996;4.754;2023-03-01T08:31:58;17.27;;;14.07;;
8861;SDS011;4799;50.996;4.754;2023-03-01T08:34:24;14.67;;;13.17;;
8861;SDS011;4799;50.996;4.754;2023-03-01T08:36:50;14.70;;;13.13;;
8861;SDS011;4799;50.996;4.754;2023-03-01T08:39:18;14.30;;;13.00;;
8861;SDS011;4799;50.996;4.754;2023-03-01T08:41:45;14.60;;;13.30;;
8861;SDS011;4799;50.996;4.754;2023-03-01T08:44:12;14.80;;;13.40;;
8861;SDS011;4799;50.996;4.754;2023-03-01T08:46:39;14.33;;;13.00;;
8861;SDS011;4799;50.996;4.754;2023-03-01T08:49:16;14.40;;;13.00;;
8861;SDS011;4799;50.996;4.754;2023-03-01T08:51:43;14.77;;;13.27;;
8861;SDS011;4799;50.996;4.754;2023-03-01T08:54:11;14.80;;;13.33;;
8861;SDS011;4799;50.996;4.754;2023-03-01T08:56:39;14.50;;;13.00;;
8861;SDS011;4799;50.996;4.754;2023-03-01T08:59:06;13.97;;;12.57;;
8861;SDS011;4799;50.996;4.754;2023-03-01T09:01:32;14.63;;;13.13;;
8861;SDS011;4799;50.996;4.754;2023-03-01T09:03:58;14.33;;;12.93;;
8861;SDS011;4799;50.996;4.754;2023-03-01T09:06:24;13.90;;;12.50;;
8861;SDS011;4799;50.996;4.754;2023-03-01T09:08:50;13.63;;;12.23;;
8861;SDS011;4799;50.996;4.754;2023-03-01T09:11:17;13.23;;;11.90;;
8861;SDS011;4799;50.996;4.754;2023-03-01T09:13:45;13.73;;;12.27;;
8861;SDS011;4799;50.996;4.754;2023-03-01T09:16:12;13.77;;;12.48;;
8861;SDS011;4799;50.996;4.754;2023-03-01T09:18:40;12.93;;;11.67;;
8861;SDS011;4799;50.996;4.754;2023-03-01T09:21:07;12.33;;;11.03;;
8861;SDS011;4799;50.996;4.754;2023-03-01T09:23:35;13.23;;;11.90;;
8861;SDS011;4799;50.996;4.754;2023-03-01T09:26:06;13.00;;;11.70;;
8861;SDS011;4799;50.996;4.754;2023-03-01T09:28:38;12.70;;;11.40;;
8861;SDS011;4799;50.996;4.754;2023-03-01T09:31:05;12.97;;;11.77;;
8861;SDS011;4799;50.996;4.754;2023-03-01T09:33:38;12.57;;;11.27;;
8861;SDS011;4799;50.996;4.754;2023-03-01T09:36:06;12.67;;;11.47;;
8861;SDS011;4799;50.996;4.754;2023-03-01T09:38:33;12.30;;;11.10;;
8861;SDS011;4799;50.996;4.754;2023-03-01T09:41:00;12.20;;;11.00;;
8861;SDS011;4799;50.996;4.754;2023-03-01T09:43:29;13.20;;;11.90;;
8861;SDS011;4799;50.996;4.754;2023-03-01T09:46:14;12.90;;;11.63;;
8861;SDS011;4799;50.996;4.754;2023-03-01T09:48:44;12.63;;;11.33;;
8861;SDS011;4799;50.996;4.754;2023-03-01T09:51:18;12.10;;;10.87;;
8861;SDS011;4799;50.996;4.754;2023-03-01T09:53:50;12.13;;;10.90;;
8861;SDS011;4799;50.996;4.754;2023-03-01T10:01:52;12.50;;;11.33;;
8861;SDS011;4799;50.996;4.754;2023-03-01T10:04:28;13.20;;;11.90;;
8861;SDS011;4799;50.996;4.754;2023-03-01T10:07:41;13.23;;;11.93;;
8861;SDS011;4799;50.996;4.754;2023-03-01T10:09:57;13.53;;;12.23;;
8861;SDS011;4799;50.996;4.754;2023-03-01T10:12:33;12.07;;;10.97;;
8861;SDS011;4799;50.996;4.754;2023-03-01T10:17:30;11.93;;;10.77;;
8861;SDS011;4799;50.996;4.754;2023-03-01T10:20:22;12.60;;;11.40;;
8861;SDS011;4799;50.996;4.754;2023-03-01T10:22:50;12.13;;;10.93;;
8861;SDS011;4799;50.996;4.754;2023-03-01T10:25:23;12.67;;;11.23;;
8861;SDS011;4799;50.996;4.754;2023-03-01T10:27:53;11.70;;;10.27;;
8861;SDS011;4799;50.996;4.754;2023-03-01T10:30:32;11.30;;;10.10;;
8861;SDS011;4799;50.996;4.754;2023-03-01T10:33:01;12.13;;;10.80;;
8861;SDS011;4799;50.996;4.754;2023-03-01T10:35:29;12.40;;;10.93;;
8861;SDS011;4799;50.996;4.754;2023-03-01T10:40:34;11.20;;;10.10;;
8861;SDS011;4799;50.996;4.754;2023-03-01T10:43:02;11.07;;;9.40;;
8861;SDS011;4799;50.996;4.754;2023-03-01T10:50:33;10.63;;;9.63;;
8861;SDS011;4799;50.996;4.754;2023-03-01T10:53:01;10.93;;;9.70;;
8861;SDS011;4799;50.996;4.754;2023-03-01T10:55:38;11.30;;;10.20;;
8861;SDS011;4799;50.996;4.754;2023-03-01T11:03:26;10.57;;;9.57;;
8861;SDS011;4799;50.996;4.754;2023-03-01T11:08:44;12.07;;;10.00;;
8861;SDS011;4799;50.996;4.754;2023-03-01T11:11:14;12.10;;;9.77;;
8861;SDS011;4799;50.996;4.754;2023-03-01T11:16:32;11.27;;;10.13;;
8861;SDS011;4799;50.996;4.754;2023-03-01T11:21:36;11.57;;;10.20;;
8861;SDS011;4799;50.996;4.754;2023-03-01T11:24:26;10.57;;;9.47;;
8861;SDS011;4799;50.996;4.754;2023-03-01T11:27:28;10.70;;;9.60;;
8861;SDS011;4799;50.996;4.754;2023-03-01T11:30:18;10.83;;;9.73;;
8861;SDS011;4799;50.996;4.754;2023-03-01T11:35:30;11.13;;;10.03;;
8861;SDS011;4799;50.996;4.754;2023-03-01T12:14:38;11.00;;;9.90;;
8861;SDS011;4799;50.996;4.754;2023-03-01T12:20:20;10.87;;;9.77;;
8861;SDS011;4799;50.996;4.754;2023-03-01T12:23:21;10.67;;;9.60;;
8861;SDS011;4799;50.996;4.754;2023-03-01T12:29:00;12.80;;;10.03;;
8861;SDS011;4799;50.996;4.754;2023-03-01T12:36:52;11.43;;;9.80;;
8861;SDS011;4799;50.996;4.754;2023-03-01T12:39:36;11.53;;;10.33;;
8861;SDS011;4799;50.996;4.754;2023-03-01T12:45:24;11.13;;;10.03;;
8861;SDS011;4799;50.996;4.754;2023-03-01T12:51:08;11.63;;;10.43;;
8861;SDS011;4799;50.996;4.754;2023-03-01T12:53:41;11.73;;;9.97;;
8861;SDS011;4799;50.996;4.754;2023-03-01T12:56:13;10.17;;;9.10;;
8861;SDS011;4799;50.996;4.754;2023-03-01T12:58:51;11.87;;;9.83;;
8861;SDS011;4799;50.996;4.754;2023-03-01T13:09:49;11.03;;;9.93;;
8861;SDS011;4799;50.996;4.754;2023-03-01T13:17:48;11.87;;;10.50;;
8861;SDS011;4799;50.996;4.754;2023-03-01T13:20:15;11.33;;;9.77;;
8861;SDS011;4799;50.996;4.754;2023-03-01T13:22:43;11.50;;;10.10;;
8861;SDS011;4799;50.996;4.754;2023-03-01T13:27:44;10.83;;;9.77;;
8861;SDS011;4799;50.996;4.754;2023-03-01T13:35:52;11.23;;;10.13;;
8861;SDS011;4799;50.996;4.754;2023-03-01T13:38:39;10.63;;;9.47;;
8861;SDS011;4799;50.996;4.754;2023-03-01T13:49:53;10.67;;;9.57;;
8861;SDS011;4799;50.996;4.754;2023-03-01T13:57:39;9.90;;;8.90;;
8861;SDS011;4799;50.996;4.754;2023-03-01T14:00:07;10.30;;;9.37;;
8861;SDS011;4799;50.996;4.754;2023-03-01T14:05:38;10.50;;;9.43;;
8861;SDS011;4799;50.996;4.754;2023-03-01T14:08:17;10.10;;;9.10;;
8861;SDS011;4799;50.996;4.754;2023-03-01T14:14:02;11.77;;;9.90;;
8861;SDS011;4799;50.996;4.754;2023-03-01T14:19:17;10.10;;;9.10;;
8861;SDS011;4799;50.996;4.754;2023-03-01T14:21:46;10.70;;;9.70;;
8861;SDS011;4799;50.996;4.754;2023-03-01T14:24:17;9.93;;;8.93;;
8861;SDS011;4799;50.996;4.754;2023-03-01T14:26:48;9.73;;;8.83;;
8861;SDS011;4799;50.996;4.754;2023-03-01T14:29:24;11.17;;;10.07;;
8861;SDS011;4799;50.996;4.754;2023-03-01T14:31:51;10.00;;;9.03;;
8861;SDS011;4799;50.996;4.754;2023-03-01T14:34:21;11.07;;;9.97;;
8861;SDS011;4799;50.996;4.754;2023-03-01T14:36:48;9.93;;;8.87;;
8861;SDS011;4799;50.996;4.754;2023-03-01T14:39:23;10.07;;;9.07;;
8861;SDS011;4799;50.996;4.754;2023-03-01T14:41:51;9.37;;;8.47;;
8861;SDS011;4799;50.996;4.754;2023-03-01T14:44:21;10.07;;;8.97;;
8861;SDS011;4799;50.996;4.754;2023-03-01T14:46:53;9.80;;;8.80;;
8861;SDS011;4799;50.996;4.754;2023-03-01T14:49:25;10.30;;;8.80;;
8861;SDS011;4799;50.996;4.754;2023-03-01T14:51:57;9.27;;;8.30;;
8861;SDS011;4799;50.996;4.754;2023-03-01T14:54:28;9.30;;;8.40;;
8861;SDS011;4799;50.996;4.754;2023-03-01T14:57:05;9.63;;;8.70;;
8861;SDS011;4799;50.996;4.754;2023-03-01T14:59:39;9.17;;;8.13;;
8861;SDS011;4799;50.996;4.754;2023-03-01T15:02:12;9.03;;;8.13;;
8861;SDS011;4799;50.996;4.754;2023-03-01T15:04:48;10.43;;;8.10;;
8861;SDS011;4799;50.996;4.754;2023-03-01T15:07:17;8.87;;;7.97;;
8861;SDS011;4799;50.996;4.754;2023-03-01T15:09:44;8.73;;;7.83;;
8861;SDS011;4799;50.996;4.754;2023-03-01T15:15:18;8.20;;;7.40;;
8861;SDS011;4799;50.996;4.754;2023-03-01T15:17:50;8.30;;;7.60;;
8861;SDS011;4799;50.996;4.754;2023-03-01T15:20:22;9.10;;;8.30;;
8861;SDS011;4799;50.996;4.754;2023-03-01T15:22:55;8.70;;;7.80;;
8861;SDS011;4799;50.996;4.754;2023-03-01T15:25:22;8.67;;;7.87;;
8861;SDS011;4799;50.996;4.754;2023-03-01T15:27:53;8.77;;;7.50;;
8861;SDS011;4799;50.996;4.754;2023-03-01T15:30:27;9.30;;;8.40;;
8861;SDS011;4799;50.996;4.754;2023-03-01T15:36:02;9.10;;;8.20;;
8861;SDS011;4799;50.996;4.754;2023-03-01T15:41:25;8.37;;;7.57;;
8861;SDS011;4799;50.996;4.754;2023-03-01T15:43:58;8.30;;;7.40;;
8861;SDS011;4799;50.996;4.754;2023-03-01T15:46:26;9.20;;;7.63;;
8861;SDS011;4799;50.996;4.754;2023-03-01T15:48:56;8.23;;;7.43;;
8861;SDS011;4799;50.996;4.754;2023-03-01T15:51:29;8.00;;;7.17;;
8861;SDS011;4799;50.996;4.754;2023-03-01T15:53:58;10.50;;;8.17;;
8861;SDS011;4799;50.996;4.754;2023-03-01T15:56:26;8.47;;;7.57;;
8861;SDS011;4799;50.996;4.754;2023-03-01T15:58:52;8.60;;;7.17;;
8861;SDS011;4799;50.996;4.754;2023-03-01T16:01:18;8.97;;;8.13;;
8861;SDS011;4799;50.996;4.754;2023-03-01T16:03:44;8.10;;;7.40;;
8861;SDS011;4799;50.996;4.754;2023-03-01T16:06:10;9.70;;;8.20;;
8861;SDS011;4799;50.996;4.754;2023-03-01T16:08:37;9.10;;;8.17;;
8861;SDS011;4799;50.996;4.754;2023-03-01T16:11:04;9.67;;;7.63;;
8861;SDS011;4799;50.996;4.754;2023-03-01T16:13:34;8.97;;;8.07;;
8861;SDS011;4799;50.996;4.754;2023-03-01T16:16:00;9.27;;;8.37;;
8861;SDS011;4799;50.996;4.754;2023-03-01T16:18:26;8.83;;;8.03;;
8861;SDS011;4799;50.996;4.754;2023-03-01T16:20:51;8.43;;;7.63;;
8861;SDS011;4799;50.996;4.754;2023-03-01T16:23:19;9.40;;;8.00;;
8861;SDS011;4799;50.996;4.754;2023-03-01T16:25:45;10.63;;;8.20;;
8861;SDS011;4799;50.996;4.754;2023-03-01T16:28:10;9.80;;;8.33;;
8861;SDS011;4799;50.996;4.754;2023-03-01T16:30:39;8.57;;;7.77;;
8861;SDS011;4799;50.996;4.754;2023-03-01T16:33:05;8.60;;;7.73;;
8861;SDS011;4799;50.996;4.754;2023-03-01T16:35:32;8.97;;;8.07;;
8861;SDS011;4799;50.996;4.754;2023-03-01T16:37:59;9.17;;;8.13;;
8861;SDS011;4799;50.996;4.754;2023-03-01T16:40:26;8.17;;;7.37;;
8861;SDS011;4799;50.996;4.754;2023-03-01T16:42:53;8.07;;;7.13;;
8861;SDS011;4799;50.996;4.754;2023-03-01T16:45:24;8.27;;;7.47;;
8861;SDS011;4799;50.996;4.754;2023-03-01T16:47:51;8.20;;;7.40;;
8861;SDS011;4799;50.996;4.754;2023-03-01T16:50:17;9.07;;;7.30;;
8861;SDS011;4799;50.996;4.754;2023-03-01T16:52:43;8.23;;;7.47;;
8861;SDS011;4799;50.996;4.754;2023-03-01T16:55:09;8.47;;;7.57;;
8861;SDS011;4799;50.996;4.754;2023-03-01T16:57:36;9.23;;;7.43;;
8861;SDS011;4799;50.996;4.754;2023-03-01T17:00:03;8.30;;;7.50;;
8861;SDS011;4799;50.996;4.754;2023-03-01T17:02:32;8.97;;;8.07;;
8861;SDS011;4799;50.996;4.754;2023-03-01T17:04:59;8.50;;;7.43;;
8861;SDS011;4799;50.996;4.754;2023-03-01T17:07:25;10.07;;;7.83;;
8861;SDS011;4799;50.996;4.754;2023-03-01T17:09:50;8.00;;;7.20;;
8861;SDS011;4799;50.996;4.754;2023-03-01T17:12:16;9.80;;;7.50;;
8861;SDS011;4799;50.996;4.754;2023-03-01T17:14:42;8.07;;;6.90;;
8861;SDS011;4799;50.996;4.754;2023-03-01T17:17:08;10.17;;;7.57;;
8861;SDS011;4799;50.996;4.754;2023-03-01T17:19:35;8.20;;;6.80;;
8861;SDS011;4799;50.996;4.754;2023-03-01T17:22:07;7.73;;;7.03;;
8861;SDS011;4799;50.996;4.754;2023-03-01T17:24:34;8.13;;;7.30;;
8861;SDS011;4799;50.996;4.754;2023-03-01T17:27:01;9.10;;;7.80;;
8861;SDS011;4799;50.996;4.754;2023-03-01T17:29:27;8.80;;;7.90;;
8861;SDS011;4799;50.996;4.754;2023-03-01T17:31:53;8.13;;;7.37;;
8861;SDS011;4799;50.996;4.754;2023-03-01T17:34:19;8.47;;;7.67;;
8861;SDS011;4799;50.996;4.754;2023-03-01T17:36:45;10.37;;;8.90;;
8861;SDS011;4799;50.996;4.754;2023-03-01T17:39:13;9.57;;;8.57;;